createdAt,value
2016-05-06T00:00:27.666Z,0
2016-05-06T00:01:27.543Z,0
2016-05-06T00:02:27.562Z,0
2016-05-06T00:03:27.581Z,0
2016-05-06T00:04:27.598Z,0
2016-05-06T00:05:27.616Z,0
2016-05-06T00:06:27.807Z,0
2016-05-06T00:07:27.684Z,0
2016-05-06T00:08:27.844Z,0
2016-05-06T00:09:27.877Z,0
2016-05-06T00:10:28.083Z,0
2016-05-06T00:11:27.913Z,0
2016-05-06T00:12:28.902Z,0
2016-05-06T00:13:27.966Z,0
2016-05-06T00:14:27.985Z,0
2016-05-06T00:15:27.846Z,0
2016-05-06T00:16:27.880Z,0
2016-05-06T00:17:28.039Z,0
2016-05-06T00:18:28.074Z,0
2016-05-06T00:19:28.092Z,0
2016-05-06T00:20:28.109Z,0
2016-05-06T00:21:28.153Z,0
2016-05-06T00:22:28.155Z,0
2016-05-06T00:23:28.174Z,0
2016-05-06T00:24:28.192Z,0
2016-05-06T00:25:28.601Z,0
2016-05-06T00:26:28.244Z,0
2016-05-06T00:27:28.263Z,0
2016-05-06T00:28:28.296Z,0
2016-05-06T00:29:28.315Z,0
2016-05-06T00:30:28.334Z,0
2016-05-06T00:31:28.351Z,0
2016-05-06T00:32:28.370Z,0
2016-05-06T00:33:28.295Z,0
2016-05-06T00:34:28.422Z,0
2016-05-06T00:35:28.426Z,0
2016-05-06T00:36:28.303Z,0
2016-05-06T00:37:28.508Z,0
2016-05-06T00:38:28.355Z,0
2016-05-06T00:39:28.529Z,0
2016-05-06T00:40:29.000Z,0
2016-05-06T00:41:28.566Z,0
2016-05-06T00:42:28.584Z,0
2016-05-06T00:43:28.306Z,0
2016-05-06T00:44:28.480Z,0
2016-05-06T00:45:28.670Z,0
2016-05-06T00:46:28.672Z,0
2016-05-06T00:47:28.722Z,0
2016-05-06T00:48:28.725Z,0
2016-05-06T00:49:28.744Z,0
2016-05-06T00:50:28.762Z,0
2016-05-06T00:51:28.624Z,0
2016-05-06T00:52:28.814Z,0
2016-05-06T00:53:28.833Z,0
2016-05-06T00:54:28.866Z,0
2016-05-06T00:55:29.432Z,0
2016-05-06T00:56:28.904Z,0
2016-05-06T00:57:28.921Z,0
2016-05-06T00:58:28.784Z,0
2016-05-06T00:59:28.957Z,0
2016-05-06T01:00:28.993Z,0
2016-05-06T01:01:29.042Z,0
2016-05-06T01:02:29.029Z,0
2016-05-06T01:03:29.062Z,0
2016-05-06T01:04:29.065Z,0
2016-05-06T01:05:29.115Z,0
2016-05-06T01:06:29.134Z,0
2016-05-06T01:07:28.979Z,0
2016-05-06T01:08:29.154Z,0
2016-05-06T01:09:29.189Z,0
2016-05-06T01:10:29.253Z,0
2016-05-06T01:11:29.225Z,0
2016-05-06T01:12:29.086Z,0
2016-05-06T01:13:29.262Z,0
2016-05-06T01:14:29.280Z,0
2016-05-06T01:15:29.314Z,0
2016-05-06T01:16:29.191Z,0
2016-05-06T01:17:29.350Z,0
2016-05-06T01:18:29.369Z,0
2016-05-06T01:19:29.403Z,0
2016-05-06T01:20:29.421Z,0
2016-05-06T01:21:29.438Z,0
2016-05-06T01:22:29.474Z,0
2016-05-06T01:23:29.491Z,0
2016-05-06T01:24:29.510Z,0
2016-05-06T01:25:29.543Z,0
2016-05-06T01:26:29.547Z,0
2016-05-06T01:27:29.565Z,0
2016-05-06T01:28:29.599Z,0
2016-05-06T01:29:29.617Z,0
2016-05-06T01:30:29.651Z,0
2016-05-06T01:31:29.654Z,0
2016-05-06T01:32:29.687Z,0
2016-05-06T01:33:29.690Z,0
2016-05-06T01:34:29.723Z,0
2016-05-06T01:35:29.430Z,0
2016-05-06T01:36:29.604Z,0
2016-05-06T01:37:29.653Z,0
2016-05-06T01:38:29.812Z,0
2016-05-06T01:39:29.832Z,0
2016-05-06T01:40:30.584Z,0
2016-05-06T01:41:29.883Z,0
2016-05-06T01:42:29.574Z,0
2016-05-06T01:43:29.764Z,0
2016-05-06T01:44:29.939Z,0
2016-05-06T01:45:29.800Z,0
2016-05-06T01:46:29.975Z,0
2016-05-06T01:47:29.994Z,0
2016-05-06T01:48:29.731Z,0
2016-05-06T01:49:29.889Z,0
2016-05-06T01:50:30.063Z,0
2016-05-06T01:51:30.083Z,0
2016-05-06T01:52:30.117Z,0
2016-05-06T01:53:29.822Z,0
2016-05-06T01:54:30.152Z,0
2016-05-06T01:55:30.813Z,0
2016-05-06T01:56:30.190Z,0
2016-05-06T01:57:30.068Z,0
2016-05-06T01:58:30.085Z,0
2016-05-06T01:59:30.104Z,0
2016-05-06T02:00:30.122Z,0
2016-05-06T02:01:30.312Z,0
2016-05-06T02:02:30.174Z,0
2016-05-06T02:03:30.192Z,0
2016-05-06T02:04:30.212Z,0
2016-05-06T02:05:30.229Z,0
2016-05-06T02:06:30.092Z,0
2016-05-06T02:07:30.437Z,0
2016-05-06T02:08:30.456Z,0
2016-05-06T02:09:30.318Z,0
2016-05-06T02:10:31.992Z,0
2016-05-06T02:11:30.511Z,0
2016-05-06T02:12:30.389Z,0
2016-05-06T02:13:30.407Z,0
2016-05-06T02:14:30.581Z,0
2016-05-06T02:15:30.459Z,0
2016-05-06T02:16:30.619Z,0
2016-05-06T02:17:30.497Z,0
2016-05-06T02:18:30.514Z,0
2016-05-06T02:19:30.689Z,0
2016-05-06T02:20:30.551Z,0
2016-05-06T02:21:30.741Z,0
2016-05-06T02:22:30.760Z,0
2016-05-06T02:23:30.984Z,0
2016-05-06T02:24:30.800Z,0
2016-05-06T02:25:30.787Z,0
2016-05-06T02:26:30.696Z,0
2016-05-06T02:27:30.886Z,0
2016-05-06T02:28:30.717Z,0
2016-05-06T02:29:30.750Z,0
2016-05-06T02:30:30.926Z,0
2016-05-06T02:31:30.944Z,0
2016-05-06T02:32:30.821Z,0
2016-05-06T02:33:30.996Z,0
2016-05-06T02:34:30.858Z,0
2016-05-06T02:35:31.048Z,0
2016-05-06T02:36:31.050Z,0
2016-05-06T02:37:30.929Z,0
2016-05-06T02:38:30.947Z,0
2016-05-06T02:39:31.122Z,0
2016-05-06T02:40:33.374Z,0
2016-05-06T02:41:31.173Z,0
2016-05-06T02:42:31.035Z,0
2016-05-06T02:43:31.211Z,0
2016-05-06T02:44:31.229Z,0
2016-05-06T02:45:31.090Z,0
2016-05-06T02:46:31.282Z,0
2016-05-06T02:47:31.299Z,0
2016-05-06T02:48:31.301Z,0
2016-05-06T02:49:31.335Z,0
2016-05-06T02:50:31.355Z,0
2016-05-06T02:51:31.373Z,0
2016-05-06T02:52:31.390Z,0
2016-05-06T02:53:31.426Z,0
2016-05-06T02:54:31.286Z,0
2016-05-06T02:55:31.306Z,0
2016-05-06T02:56:31.323Z,0
2016-05-06T02:57:31.498Z,0
2016-05-06T02:58:31.204Z,0
2016-05-06T02:59:31.551Z,0
2016-05-06T03:00:31.569Z,0
2016-05-06T03:01:31.430Z,0
2016-05-06T03:02:31.621Z,0
2016-05-06T03:03:31.639Z,0
2016-05-06T03:04:31.658Z,0
2016-05-06T03:05:31.675Z,0
2016-05-06T03:06:31.694Z,0
2016-05-06T03:07:31.713Z,0
2016-05-06T03:08:31.761Z,0
2016-05-06T03:09:31.764Z,0
2016-05-06T03:10:32.033Z,0
2016-05-06T03:11:31.802Z,0
2016-05-06T03:12:31.835Z,0
2016-05-06T03:13:31.838Z,0
2016-05-06T03:14:31.871Z,0
2016-05-06T03:15:31.891Z,0
2016-05-06T03:16:31.752Z,0
2016-05-06T03:17:31.771Z,0
2016-05-06T03:18:31.945Z,0
2016-05-06T03:19:31.979Z,0
2016-05-06T03:20:31.998Z,0
2016-05-06T03:21:32.015Z,0
2016-05-06T03:22:32.034Z,0
2016-05-06T03:23:32.084Z,0
2016-05-06T03:24:32.087Z,0
2016-05-06T03:25:32.104Z,0
2016-05-06T03:26:31.967Z,0
2016-05-06T03:27:32.142Z,0
2016-05-06T03:28:32.159Z,0
2016-05-06T03:29:32.022Z,0
2016-05-06T03:30:32.056Z,0
2016-05-06T03:31:32.214Z,4
2016-05-06T03:32:32.092Z,4
2016-05-06T03:33:32.111Z,4
2016-05-06T03:34:32.285Z,0
2016-05-06T03:35:32.319Z,4
2016-05-06T03:36:32.166Z,4
2016-05-06T03:37:32.200Z,4
2016-05-06T03:38:32.374Z,4
2016-05-06T03:39:32.424Z,4
2016-05-06T03:40:32.442Z,8
2016-05-06T03:41:32.517Z,8
2016-05-06T03:42:32.471Z,12
2016-05-06T03:43:32.946Z,12
2016-05-06T03:44:32.479Z,12
2016-05-06T03:45:32.513Z,16
2016-05-06T03:46:32.531Z,20
2016-05-06T03:47:32.550Z,20
2016-05-06T03:48:32.427Z,24
2016-05-06T03:49:32.602Z,24
2016-05-06T03:50:32.448Z,28
2016-05-06T03:51:32.638Z,32
2016-05-06T03:52:32.657Z,36
2016-05-06T03:53:32.674Z,40
2016-05-06T03:54:32.710Z,44
2016-05-06T03:55:32.571Z,48
2016-05-06T03:56:32.746Z,56
2016-05-06T03:57:32.607Z,56
2016-05-06T03:58:32.798Z,64
2016-05-06T03:59:32.816Z,72
2016-05-06T04:00:32.835Z,80
2016-05-06T04:01:32.540Z,88
2016-05-06T04:02:32.730Z,96
2016-05-06T04:03:32.937Z,104
2016-05-06T04:04:32.751Z,112
2016-05-06T04:05:32.956Z,124
2016-05-06T04:06:32.960Z,136
2016-05-06T04:07:32.823Z,144
2016-05-06T04:08:32.997Z,156
2016-05-06T04:09:33.030Z,164
2016-05-06T04:10:33.065Z,180
2016-05-06T04:11:32.957Z,188
2016-05-06T04:12:33.086Z,204
2016-05-06T04:13:33.103Z,220
2016-05-06T04:14:33.122Z,236
2016-05-06T04:15:33.141Z,248
2016-05-06T04:16:33.174Z,268
2016-05-06T04:17:33.193Z,284
2016-05-06T04:18:33.210Z,304
2016-05-06T04:19:33.230Z,328
2016-05-06T04:20:33.091Z,344
2016-05-06T04:21:33.282Z,368
2016-05-06T04:22:33.299Z,388
2016-05-06T04:23:33.318Z,412
2016-05-06T04:24:33.180Z,436
2016-05-06T04:25:33.370Z,464
2016-05-06T04:26:33.388Z,496
2016-05-06T04:27:33.407Z,528
2016-05-06T04:28:33.457Z,552
2016-05-06T04:29:33.443Z,576
2016-05-06T04:30:33.462Z,600
2016-05-06T04:31:33.496Z,620
2016-05-06T04:32:33.530Z,640
2016-05-06T04:33:33.220Z,664
2016-05-06T04:34:33.551Z,684
2016-05-06T04:35:33.257Z,708
2016-05-06T04:36:33.431Z,736
2016-05-06T04:37:33.622Z,764
2016-05-06T04:38:33.483Z,788
2016-05-06T04:39:33.658Z,800
2016-05-06T04:40:33.645Z,820
2016-05-06T04:41:33.711Z,848
2016-05-06T04:42:33.572Z,888
2016-05-06T04:43:33.434Z,916
2016-05-06T04:44:33.766Z,944
2016-05-06T04:45:33.768Z,964
2016-05-06T04:46:33.646Z,992
2016-05-06T04:47:33.820Z,1016
2016-05-06T04:48:33.542Z,1044
2016-05-06T04:49:33.872Z,1064
2016-05-06T04:50:33.735Z,1092
2016-05-06T04:51:33.909Z,1120
2016-05-06T04:52:33.927Z,1144
2016-05-06T04:53:33.946Z,1172
2016-05-06T04:54:33.964Z,1200
2016-05-06T04:55:33.841Z,1224
2016-05-06T04:56:34.016Z,1252
2016-05-06T04:57:34.035Z,1276
2016-05-06T04:58:34.053Z,1304
2016-05-06T04:59:34.087Z,1332
2016-05-06T05:00:34.104Z,1360
2016-05-06T05:01:34.124Z,1392
2016-05-06T05:02:34.142Z,1420
2016-05-06T05:03:34.159Z,1452
2016-05-06T05:04:34.195Z,1488
2016-05-06T05:05:34.197Z,1520
2016-05-06T05:06:34.231Z,1548
2016-05-06T05:07:34.092Z,1580
2016-05-06T05:08:34.268Z,1612
2016-05-06T05:09:34.301Z,1644
2016-05-06T05:10:34.343Z,1680
2016-05-06T05:11:34.408Z,1712
2016-05-06T05:12:34.473Z,1748
2016-05-06T05:13:34.398Z,1780
2016-05-06T05:14:34.604Z,1816
2016-05-06T05:15:34.514Z,1852
2016-05-06T05:16:34.706Z,1884
2016-05-06T05:17:34.742Z,1920
2016-05-06T05:18:34.464Z,1956
2016-05-06T05:19:34.671Z,1988
2016-05-06T05:20:34.842Z,2024
2016-05-06T05:21:34.913Z,2064
2016-05-06T05:22:34.907Z,2104
2016-05-06T05:23:34.930Z,2140
2016-05-06T05:24:34.956Z,2176
2016-05-06T05:25:34.993Z,2212
2016-05-06T05:26:35.374Z,2252
2016-05-06T05:27:35.034Z,2292
2016-05-06T05:28:34.900Z,2332
2016-05-06T05:29:35.076Z,2368
2016-05-06T05:30:35.111Z,2412
2016-05-06T05:31:34.959Z,2456
2016-05-06T05:32:34.993Z,2500
2016-05-06T05:33:35.169Z,2548
2016-05-06T05:34:35.187Z,2608
2016-05-06T05:35:35.066Z,2676
2016-05-06T05:36:35.240Z,2756
2016-05-06T05:37:35.119Z,2836
2016-05-06T05:38:35.310Z,2944
2016-05-06T05:39:35.297Z,3052
2016-05-06T05:40:35.347Z,3180
2016-05-06T05:41:35.194Z,5604
2016-05-06T05:42:35.368Z,9908
2016-05-06T05:43:35.386Z,15136
2016-05-06T05:44:35.421Z,19104
2016-05-06T05:45:35.438Z,21760
2016-05-06T05:46:35.457Z,20672
2016-05-06T05:47:35.319Z,20256
2016-05-06T05:48:35.494Z,20768
2016-05-06T05:49:35.371Z,21216
2016-05-06T05:50:35.546Z,21696
2016-05-06T05:51:35.564Z,23328
2016-05-06T05:52:35.442Z,23040
2016-05-06T05:53:35.476Z,23520
2016-05-06T05:54:35.635Z,23072
2016-05-06T05:55:35.762Z,22624
2016-05-06T05:56:35.687Z,22688
2016-05-06T05:57:35.549Z,23168
2016-05-06T05:58:36.114Z,23360
2016-05-06T05:59:35.757Z,23744
2016-05-06T06:00:35.995Z,23936
2016-05-06T06:01:36.637Z,23968
2016-05-06T06:02:35.828Z,24000
2016-05-06T06:03:35.847Z,24704
2016-05-06T06:04:35.895Z,25024
2016-05-06T06:05:35.898Z,25344
2016-05-06T06:06:35.917Z,25376
2016-05-06T06:07:35.951Z,25600
2016-05-06T06:08:35.813Z,25952
2016-05-06T06:09:35.831Z,25728
2016-05-06T06:10:36.474Z,25600
2016-05-06T06:11:36.039Z,25504
2016-05-06T06:12:36.074Z,25568
2016-05-06T06:13:36.077Z,25216
2016-05-06T06:14:36.127Z,24864
2016-05-06T06:15:36.129Z,25024
2016-05-06T06:16:36.162Z,24704
2016-05-06T06:17:36.025Z,25088
2016-05-06T06:18:36.199Z,25024
2016-05-06T06:19:36.218Z,24864
2016-05-06T06:20:36.096Z,24704
2016-05-06T06:21:36.270Z,24768
2016-05-06T06:22:36.304Z,24928
2016-05-06T06:23:36.321Z,24160
2016-05-06T06:24:36.200Z,24384
2016-05-06T06:25:36.234Z,25568
2016-05-06T06:26:36.534Z,26496
2016-05-06T06:27:36.426Z,27040
2016-05-06T06:28:36.304Z,27968
2016-05-06T06:29:36.478Z,28800
2016-05-06T06:30:36.498Z,29280
2016-05-06T06:31:36.531Z,29920
2016-05-06T06:32:36.549Z,30272
2016-05-06T06:33:36.584Z,30272
2016-05-06T06:34:36.586Z,29888
2016-05-06T06:35:36.478Z,29728
2016-05-06T06:36:36.654Z,28512
2016-05-06T06:37:36.688Z,28672
2016-05-06T06:38:36.691Z,29152
2016-05-06T06:39:36.740Z,28928
2016-05-06T06:40:36.758Z,29344
2016-05-06T06:41:37.074Z,29632
2016-05-06T06:42:36.794Z,30400
2016-05-06T06:43:36.829Z,30304
2016-05-06T06:44:36.847Z,30144
2016-05-06T06:45:36.866Z,30208
2016-05-06T06:46:36.759Z,30368
2016-05-06T06:47:36.933Z,30016
2016-05-06T06:48:36.952Z,29728
2016-05-06T06:49:36.813Z,29472
2016-05-06T06:50:37.019Z,29696
2016-05-06T06:51:36.866Z,29184
2016-05-06T06:52:37.057Z,29536
2016-05-06T06:53:37.074Z,29856
2016-05-06T06:54:36.968Z,30080
2016-05-06T06:55:37.142Z,30048
2016-05-06T06:56:37.832Z,29504
2016-05-06T06:57:37.179Z,28896
2016-05-06T06:58:37.228Z,29056
2016-05-06T06:59:37.091Z,28992
2016-05-06T07:00:37.265Z,29152
2016-05-06T07:01:37.284Z,29088
2016-05-06T07:02:37.162Z,28448
2016-05-06T07:03:37.336Z,28160
2016-05-06T07:04:37.369Z,28800
2016-05-06T07:05:37.403Z,28672
2016-05-06T07:06:37.422Z,27904
2016-05-06T07:07:37.284Z,27712
2016-05-06T07:08:37.474Z,27616
2016-05-06T07:09:37.493Z,27616
2016-05-06T07:10:37.527Z,27584
2016-05-06T07:11:37.700Z,27520
2016-05-06T07:12:37.594Z,27264
2016-05-06T07:13:37.597Z,27040
2016-05-06T07:14:37.646Z,27232
2016-05-06T07:15:37.493Z,27680
2016-05-06T07:16:37.683Z,27840
2016-05-06T07:17:37.561Z,27264
2016-05-06T07:18:37.736Z,27488
2016-05-06T07:19:37.754Z,27520
2016-05-06T07:20:37.804Z,27552
2016-05-06T07:21:37.821Z,27744
2016-05-06T07:22:37.840Z,27360
2016-05-06T07:23:37.738Z,26944
2016-05-06T07:24:37.897Z,27584
2016-05-06T07:25:37.931Z,26720
2016-05-06T07:26:38.090Z,26560
2016-05-06T07:27:37.843Z,27520
2016-05-06T07:28:38.251Z,26976
2016-05-06T07:29:38.036Z,25728
2016-05-06T07:30:37.914Z,26144
2016-05-06T07:31:38.088Z,26016
2016-05-06T07:32:38.123Z,25792
2016-05-06T07:33:38.140Z,25376
2016-05-06T07:34:38.174Z,25184
2016-05-06T07:35:38.192Z,24832
2016-05-06T07:36:38.070Z,25248
2016-05-06T07:37:38.260Z,25376
2016-05-06T07:38:38.153Z,24768
2016-05-06T07:39:38.156Z,24352
2016-05-06T07:40:38.331Z,24576
2016-05-06T07:41:38.802Z,24256
2016-05-06T07:42:38.399Z,24128
2016-05-06T07:43:38.417Z,23392
2016-05-06T07:44:38.451Z,23360
2016-05-06T07:45:38.000Z,22816
2016-05-06T07:46:38.347Z,22912
2016-05-06T07:47:38.537Z,22304
2016-05-06T07:48:38.541Z,22112
2016-05-06T07:49:38.574Z,21920
2016-05-06T07:50:38.592Z,22240
2016-05-06T07:51:38.657Z,21920
2016-05-06T07:52:38.660Z,21408
2016-05-06T07:53:38.678Z,21120
2016-05-06T07:54:38.712Z,20960
2016-05-06T07:55:38.590Z,21408
2016-05-06T07:56:40.327Z,21184
2016-05-06T07:57:38.798Z,20480
2016-05-06T07:58:38.818Z,19872
2016-05-06T07:59:38.695Z,17956
2016-05-06T08:00:38.869Z,15380
2016-05-06T08:01:38.903Z,15472
2016-05-06T08:02:38.937Z,15248
2016-05-06T08:03:38.955Z,14200
2016-05-06T08:04:38.989Z,12696
2016-05-06T08:05:38.851Z,8248
2016-05-06T08:06:39.042Z,4788
2016-05-06T08:07:38.903Z,4168
2016-05-06T08:08:39.109Z,3908
2016-05-06T08:09:39.128Z,3780
2016-05-06T08:10:39.161Z,3708
2016-05-06T08:11:39.633Z,3648
2016-05-06T08:12:39.197Z,3596
2016-05-06T08:13:39.217Z,3580
2016-05-06T08:14:39.250Z,3564
2016-05-06T08:15:39.285Z,3556
2016-05-06T08:16:39.146Z,3576
2016-05-06T08:17:39.336Z,3556
2016-05-06T08:18:39.371Z,3524
2016-05-06T08:19:39.388Z,3512
2016-05-06T08:20:39.407Z,3496
2016-05-06T08:21:39.285Z,3492
2016-05-06T08:22:39.460Z,3500
2016-05-06T08:23:39.493Z,3476
2016-05-06T08:24:39.512Z,3476
2016-05-06T08:25:39.390Z,3476
2016-05-06T08:26:39.423Z,3476
2016-05-06T08:27:39.613Z,3472
2016-05-06T08:28:39.616Z,3508
2016-05-06T08:29:39.650Z,3532
2016-05-06T08:30:39.668Z,3524
2016-05-06T08:31:39.703Z,3520
2016-05-06T08:32:39.737Z,3532
2016-05-06T08:33:39.754Z,3520
2016-05-06T08:34:39.617Z,3508
2016-05-06T08:35:39.667Z,3512
2016-05-06T08:36:39.528Z,3508
2016-05-06T08:37:39.703Z,3504
2016-05-06T08:38:39.908Z,3504
2016-05-06T08:39:41.115Z,3500
2016-05-06T08:40:39.945Z,3480
2016-05-06T08:41:40.792Z,3460
2016-05-06T08:42:39.997Z,3468
2016-05-06T08:43:40.016Z,3456
2016-05-06T08:44:40.050Z,3460
2016-05-06T08:45:40.068Z,3444
2016-05-06T08:46:39.789Z,3452
2016-05-06T08:47:40.136Z,3460
2016-05-06T08:48:39.998Z,3416
2016-05-06T08:49:40.016Z,3412
2016-05-06T08:50:39.894Z,3408
2016-05-06T08:51:40.240Z,3404
2016-05-06T08:52:40.260Z,3408
2016-05-06T08:53:40.277Z,3396
2016-05-06T08:54:40.171Z,3396
2016-05-06T08:55:40.345Z,3400
2016-05-06T08:56:41.113Z,3384
2016-05-06T08:57:40.241Z,3388
2016-05-06T08:58:40.416Z,3380
2016-05-06T08:59:40.434Z,3372
2016-05-06T09:00:40.468Z,3348
2016-05-06T09:01:40.501Z,3332
2016-05-06T09:02:40.521Z,3312
2016-05-06T09:03:40.398Z,3288
2016-05-06T09:04:40.620Z,3292
2016-05-06T09:05:40.606Z,3276
2016-05-06T09:06:40.468Z,3268
2016-05-06T09:07:40.502Z,3268
2016-05-06T09:08:40.677Z,3260
2016-05-06T09:09:40.539Z,3252
2016-05-06T09:10:40.729Z,3256
2016-05-06T09:11:40.592Z,3252
2016-05-06T09:12:40.766Z,3244
2016-05-06T09:13:40.659Z,3204
2016-05-06T09:14:40.833Z,3148
2016-05-06T09:15:40.852Z,3136
2016-05-06T09:16:40.886Z,3124
2016-05-06T09:17:40.952Z,3116
2016-05-06T09:18:40.625Z,3132
2016-05-06T09:19:40.957Z,3132
2016-05-06T09:20:40.834Z,3124
2016-05-06T09:21:40.572Z,3112
2016-05-06T09:22:41.058Z,3096
2016-05-06T09:23:41.092Z,3072
2016-05-06T09:24:41.096Z,3056
2016-05-06T09:25:41.114Z,3044
2016-05-06T09:26:42.038Z,3020
2016-05-06T09:27:41.166Z,3016
2016-05-06T09:28:41.043Z,2984
2016-05-06T09:29:41.062Z,2948
2016-05-06T09:30:41.079Z,2920
2016-05-06T09:31:41.270Z,2916
2016-05-06T09:32:41.304Z,2900
2016-05-06T09:33:41.182Z,2896
2016-05-06T09:34:41.357Z,2872
2016-05-06T09:35:41.250Z,2856
2016-05-06T09:36:41.424Z,2840
2016-05-06T09:37:41.271Z,2824
2016-05-06T09:38:41.445Z,2820
2016-05-06T09:39:41.495Z,2848
2016-05-06T09:40:41.514Z,2864
2016-05-06T09:41:41.250Z,2852
2016-05-06T09:42:41.597Z,2824
2016-05-06T09:43:41.443Z,2828
2016-05-06T09:44:41.634Z,2832
2016-05-06T09:45:41.636Z,2812
2016-05-06T09:46:41.686Z,2808
2016-05-06T09:47:41.533Z,2808
2016-05-06T09:48:41.706Z,2796
2016-05-06T09:49:41.740Z,2788
2016-05-06T09:50:41.603Z,2776
2016-05-06T09:51:41.777Z,2768
2016-05-06T09:52:41.811Z,2768
2016-05-06T09:53:41.845Z,2760
2016-05-06T09:54:41.863Z,2752
2016-05-06T09:55:41.897Z,2748
2016-05-06T09:56:41.775Z,2768
2016-05-06T09:57:41.793Z,2776
2016-05-06T09:58:41.968Z,2784
2016-05-06T09:59:42.001Z,2788
2016-05-06T10:00:41.880Z,2768
2016-05-06T10:01:42.038Z,2744
2016-05-06T10:02:42.072Z,2732
2016-05-06T10:03:41.935Z,2724
2016-05-06T10:04:42.124Z,2736
2016-05-06T10:05:42.001Z,2724
2016-05-06T10:06:42.193Z,2712
2016-05-06T10:07:42.070Z,2708
2016-05-06T10:08:42.073Z,2720
2016-05-06T10:09:42.263Z,2724
2016-05-06T10:10:42.281Z,2708
2016-05-06T10:11:42.315Z,2708
2016-05-06T10:12:42.334Z,2708
2016-05-06T10:13:42.196Z,2700
2016-05-06T10:14:42.386Z,2692
2016-05-06T10:15:42.404Z,2680
2016-05-06T10:16:42.438Z,2680
2016-05-06T10:17:42.300Z,2664
2016-05-06T10:18:42.491Z,2660
2016-05-06T10:19:42.508Z,2660
2016-05-06T10:20:42.528Z,2668
2016-05-06T10:21:42.249Z,2672
2016-05-06T10:22:42.580Z,2688
2016-05-06T10:23:42.457Z,2688
2016-05-06T10:24:42.631Z,2668
2016-05-06T10:25:42.666Z,2624
2016-05-06T10:26:42.996Z,2588
2016-05-06T10:27:42.718Z,2560
2016-05-06T10:28:42.736Z,2540
2016-05-06T10:29:42.770Z,2504
2016-05-06T10:30:42.632Z,2508
2016-05-06T10:31:42.822Z,2532
2016-05-06T10:32:42.841Z,2548
2016-05-06T10:33:42.859Z,2532
2016-05-06T10:34:42.734Z,2496
2016-05-06T10:35:42.924Z,2444
2016-05-06T10:36:42.786Z,2428
2016-05-06T10:37:42.960Z,2424
2016-05-06T10:38:43.010Z,2416
2016-05-06T10:39:43.012Z,2420
2016-05-06T10:40:43.047Z,2424
2016-05-06T10:41:43.112Z,2436
2016-05-06T10:42:43.084Z,2452
2016-05-06T10:43:43.133Z,2456
2016-05-06T10:44:43.151Z,2456
2016-05-06T10:45:43.170Z,2460
2016-05-06T10:46:43.203Z,2472
2016-05-06T10:47:43.222Z,2468
2016-05-06T10:48:43.240Z,2508
2016-05-06T10:49:43.305Z,2472
2016-05-06T10:50:43.293Z,2492
2016-05-06T10:51:43.327Z,2488
2016-05-06T10:52:43.360Z,2500
2016-05-06T10:53:43.222Z,2500
2016-05-06T10:54:43.241Z,2520
2016-05-06T10:55:43.275Z,2556
2016-05-06T10:56:43.466Z,2552
2016-05-06T10:57:43.171Z,2524
2016-05-06T10:58:43.361Z,2476
2016-05-06T10:59:43.535Z,2476
2016-05-06T11:00:43.555Z,2496
2016-05-06T11:01:43.415Z,2484
2016-05-06T11:02:43.607Z,2496
2016-05-06T11:03:43.499Z,2484
2016-05-06T11:04:43.502Z,2436
2016-05-06T11:05:43.535Z,2404
2016-05-06T11:06:43.710Z,2404
2016-05-06T11:07:43.729Z,2368
2016-05-06T11:08:43.623Z,2360
2016-05-06T11:09:43.781Z,2380
2016-05-06T11:10:43.659Z,2404
2016-05-06T11:11:45.459Z,2392
2016-05-06T11:12:43.915Z,2396
2016-05-06T11:13:43.886Z,2452
2016-05-06T11:14:43.935Z,2492
2016-05-06T11:15:43.970Z,2480
2016-05-06T11:16:43.815Z,2444
2016-05-06T11:17:43.990Z,2500
2016-05-06T11:18:43.868Z,2500
2016-05-06T11:19:43.886Z,2504
2016-05-06T11:20:43.905Z,2504
2016-05-06T11:21:43.939Z,2508
2016-05-06T11:22:44.114Z,2516
2016-05-06T11:23:44.147Z,2516
2016-05-06T11:24:44.165Z,2500
2016-05-06T11:25:44.200Z,2504
2016-05-06T11:26:43.811Z,2500
2016-05-06T11:27:44.252Z,2500
2016-05-06T11:28:44.286Z,2476
2016-05-06T11:29:44.304Z,2480
2016-05-06T11:30:44.322Z,2488
2016-05-06T11:31:44.200Z,2492
2016-05-06T11:32:44.374Z,2520
2016-05-06T11:33:44.080Z,2504
2016-05-06T11:34:44.443Z,2404
2016-05-06T11:35:44.460Z,2404
2016-05-06T11:36:44.464Z,2452
2016-05-06T11:37:44.497Z,2448
2016-05-06T11:38:44.374Z,2512
2016-05-06T11:39:44.253Z,2488
2016-05-06T11:40:44.584Z,2496
2016-05-06T11:41:44.446Z,2512
2016-05-06T11:42:44.464Z,2492
2016-05-06T11:43:46.420Z,2484
2016-05-06T11:44:44.516Z,2476
2016-05-06T11:45:44.706Z,2508
2016-05-06T11:46:44.412Z,2548
2016-05-06T11:47:44.587Z,2536
2016-05-06T11:48:44.776Z,2448
2016-05-06T11:49:44.795Z,2488
2016-05-06T11:50:44.845Z,2536
2016-05-06T11:51:44.707Z,2564
2016-05-06T11:52:44.881Z,2592
2016-05-06T11:53:44.759Z,2564
2016-05-06T11:54:44.934Z,2596
2016-05-06T11:55:44.639Z,2600
2016-05-06T11:56:44.986Z,2592
2016-05-06T11:57:45.035Z,2580
2016-05-06T11:58:45.929Z,2560
2016-05-06T11:59:45.056Z,2548
2016-05-06T12:00:45.074Z,2556
2016-05-06T12:01:45.109Z,2616
2016-05-06T12:02:45.143Z,2600
2016-05-06T12:03:45.161Z,2604
2016-05-06T12:04:45.179Z,2624
2016-05-06T12:05:45.214Z,2592
2016-05-06T12:06:45.232Z,2616
2016-05-06T12:07:45.265Z,2624
2016-05-06T12:08:45.300Z,2584
2016-05-06T12:09:45.318Z,2604
2016-05-06T12:10:45.336Z,2660
2016-05-06T12:11:45.385Z,2676
2016-05-06T12:12:45.232Z,2684
2016-05-06T12:13:45.266Z,2676
2016-05-06T12:14:45.440Z,2640
2016-05-06T12:15:45.303Z,2652
2016-05-06T12:16:45.492Z,2628
2016-05-06T12:17:45.512Z,2624
2016-05-06T12:18:45.545Z,2624
2016-05-06T12:19:45.423Z,2664
2016-05-06T12:20:45.598Z,2676
2016-05-06T12:21:45.615Z,2684
2016-05-06T12:22:45.478Z,2688
2016-05-06T12:23:45.512Z,2692
2016-05-06T12:24:45.530Z,2716
2016-05-06T12:25:45.564Z,2704
2016-05-06T12:26:48.458Z,2700
2016-05-06T12:27:45.773Z,2700
2016-05-06T12:28:45.791Z,2692
2016-05-06T12:29:47.918Z,2644
2016-05-06T12:30:45.844Z,2672
2016-05-06T12:31:45.877Z,2704
2016-05-06T12:32:45.739Z,2708
2016-05-06T12:33:45.789Z,2732
2016-05-06T12:34:45.791Z,2744
2016-05-06T12:35:45.982Z,2728
2016-05-06T12:36:45.999Z,2704
2016-05-06T12:37:45.706Z,2700
2016-05-06T12:38:45.896Z,2696
2016-05-06T12:39:45.913Z,2716
2016-05-06T12:40:45.949Z,2724
2016-05-06T12:41:46.357Z,2716
2016-05-06T12:42:46.156Z,2748
2016-05-06T12:43:46.191Z,2756
2016-05-06T12:44:46.209Z,2760
2016-05-06T12:45:46.227Z,2780
2016-05-06T12:46:46.104Z,2772
2016-05-06T12:47:46.295Z,2788
2016-05-06T12:48:46.298Z,2796
2016-05-06T12:49:46.176Z,2788
2016-05-06T12:50:46.351Z,2788
2016-05-06T12:51:46.384Z,2788
2016-05-06T12:52:46.090Z,2800
2016-05-06T12:53:46.451Z,2820
2016-05-06T12:54:46.954Z,2812
2016-05-06T12:55:46.489Z,2792
2016-05-06T12:56:46.381Z,2820
2016-05-06T12:57:46.541Z,2788
2016-05-06T12:58:46.559Z,2776
2016-05-06T12:59:46.593Z,2804
2016-05-06T13:00:46.611Z,2784
2016-05-06T13:01:46.489Z,2768
2016-05-06T13:02:46.664Z,2760
2016-05-06T13:03:47.494Z,2736
2016-05-06T13:04:46.435Z,2704
2016-05-06T13:05:46.750Z,2684
2016-05-06T13:06:46.611Z,2672
2016-05-06T13:07:49.708Z,2688
2016-05-06T13:08:50.274Z,2676
2016-05-06T13:09:47.791Z,2664
2016-05-06T13:10:46.872Z,2640
2016-05-06T13:11:47.766Z,2644
2016-05-06T13:12:46.924Z,2632
2016-05-06T13:13:46.787Z,2592
2016-05-06T13:14:46.821Z,2572
2016-05-06T13:15:46.996Z,2596
2016-05-06T13:16:47.013Z,2580
2016-05-06T13:17:47.048Z,2572
2016-05-06T13:18:47.066Z,2556
2016-05-06T13:19:47.101Z,2584
2016-05-06T13:20:47.118Z,2580
2016-05-06T13:21:47.152Z,2608
2016-05-06T13:22:47.171Z,2632
2016-05-06T13:23:47.205Z,2596
2016-05-06T13:24:47.223Z,2644
2016-05-06T13:25:47.100Z,2640
2016-05-06T13:26:47.665Z,2632
2016-05-06T13:27:47.293Z,2628
2016-05-06T13:28:47.187Z,2648
2016-05-06T13:29:47.361Z,2652
2016-05-06T13:30:47.380Z,2664
2016-05-06T13:31:47.398Z,2628
2016-05-06T13:32:47.448Z,2644
2016-05-06T13:33:47.450Z,2652
2016-05-06T13:34:47.328Z,2640
2016-05-06T13:35:47.361Z,2636
2016-05-06T13:36:47.522Z,2636
2016-05-06T13:37:47.554Z,2616
2016-05-06T13:38:47.588Z,2580